Sherwood, Texas
Current Conditions -  °F | °C
As of 5:51 AM on Tuesday 27 Jan 2015 (Local Time) from KSJT Reporting Station
Clear Clear  
Wind Chill: 32°   Ceiling: Unl
Heat Index: 37°   Visibility: 10mi
Dew Point: 33°   Wind: 7mph
Humidity: 86%   Direction: 220°SW
Pressure: 30.2"   Gusts: NA
Location:  31.3151°N, 100.959°W
Report Text: KSJT 271151Z AUTO 22006KT 10SM CLR 03/01 A3020 RMK AO2 SLP224 T00280006 10072 20022 56003
Loading
Personal Weather Stations






























Interactive Weather Map New forecast layout! Learn more

10-Day Weather Forecast

Advertisements
Track Severe Weather on mobile